Time;durP1;ratioP1;P1;durP2;ratioP2;P2;SDS_P1;SDS_P2;PMS_P1;PMS_P2;Temp;Humidity;BMP_temperature;BMP_pressure;BME280_temperature;BME280_humidity;BME280_pressure;Samples;Min_cycle;Max_cycle;Signal;HPM_P1;HPM_P2
2022/11/20 00:00:28;;;;;;;15.70;12.13;;;0.70;99.90;;;;;;5201288;28;20217;-52
2022/11/20 00:02:59;;;;;;;22.27;13.53;;;0.70;99.90;;;;;;5201100;28;20203;-49
2022/11/20 00:05:32;;;;;;;27.17;13.57;;;0.60;99.90;;;;;;5198333;28;20212;-50
2022/11/20 00:08:03;;;;;;;18.60;13.37;;;0.70;99.90;;;;;;5199349;28;20191;-51
2022/11/20 00:10:36;;;;;;;25.07;13.13;;;0.60;99.90;;;;;;5194870;28;20500;-52
2022/11/20 00:13:08;;;;;;;17.87;11.23;;;0.60;99.90;;;;;;5197662;28;20874;-51
2022/11/20 00:15:38;;;;;;;17.57;10.40;;;0.70;99.90;;;;;;5198342;28;20457;-49
2022/11/20 00:18:09;;;;;;;19.83;11.23;;;0.60;99.90;;;;;;5196523;28;20442;-53
2022/11/20 00:20:40;;;;;;;14.73;10.13;;;0.50;99.90;;;;;;5195477;28;20234;-52
2022/11/20 00:23:11;;;;;;;20.37;12.43;;;0.50;99.90;;;;;;5200823;28;20474;-50
2022/11/20 00:25:42;;;;;;;20.13;11.00;;;0.50;99.90;;;;;;5201430;28;20222;-51
2022/11/20 00:28:12;;;;;;;18.17;11.10;;;0.60;99.90;;;;;;5195122;28;20188;-51
2022/11/20 00:30:43;;;;;;;21.83;11.77;;;0.50;99.90;;;;;;5196255;28;20190;-49
2022/11/20 00:33:14;;;;;;;17.97;11.20;;;0.60;99.90;;;;;;5201680;28;20712;-50
2022/11/20 00:35:44;;;;;;;21.87;11.87;;;0.60;99.90;;;;;;5196446;28;20184;-50
2022/11/20 00:38:15;;;;;;;17.87;10.90;;;0.60;99.90;;;;;;5197352;28;20181;-50
2022/11/20 00:40:46;;;;;;;15.30;10.67;;;0.60;99.90;;;;;;5194979;28;20206;-52
2022/11/20 00:43:16;;;;;;;17.03;11.13;;;0.50;99.90;;;;;;5202118;28;20290;-52
2022/11/20 00:45:47;;;;;;;18.10;12.07;;;0.50;99.90;;;;;;5197295;28;20238;-50
2022/11/20 00:48:18;;;;;;;14.40;10.47;;;0.50;99.90;;;;;;5205895;28;20187;-52
2022/11/20 00:50:49;;;;;;;20.43;12.70;;;0.50;99.90;;;;;;5204436;28;20196;-52
2022/11/20 00:53:20;;;;;;;25.50;11.80;;;0.50;99.90;;;;;;5203826;28;20694;-49
2022/11/20 00:55:55;;;;;;;17.17;11.00;;;0.50;99.90;;;;;;5201651;28;20242;-51
2022/11/20 00:58:30;;;;;;;15.33;11.00;;;0.50;99.90;;;;;;5201724;28;20452;-51
2022/11/20 01:01:07;;;;;;;15.30;10.20;;;0.50;99.90;;;;;;5205057;28;20483;-50
2022/11/20 01:03:41;;;;;;;10.93;9.17;;;0.50;99.90;;;;;;5207797;28;20864;-52
2022/11/20 01:06:17;;;;;;;23.30;12.60;;;0.50;99.90;;;;;;5208237;28;20873;-51
2022/11/20 01:08:49;;;;;;;20.80;10.40;;;0.50;99.90;;;;;;5199592;28;20466;-52
2022/11/20 01:11:32;;;;;;;15.93;10.80;;;0.50;99.90;;;;;;5205624;28;20426;-52
2022/11/20 01:14:05;;;;;;;18.13;10.80;;;0.50;99.90;;;;;;5199691;28;21155;-49
2022/11/20 01:16:42;;;;;;;19.77;11.03;;;0.50;99.90;;;;;;5203127;28;20453;-50
2022/11/20 01:19:16;;;;;;;18.13;11.10;;;0.50;99.90;;;;;;5213620;28;20986;-51
2022/11/20 01:21:49;;;;;;;17.70;11.47;;;0.50;99.90;;;;;;5203003;28;20460;-52
2022/11/20 01:24:21;;;;;;;18.07;11.60;;;0.60;99.90;;;;;;5202305;28;20811;-50
2022/11/20 01:26:52;;;;;;;20.03;11.63;;;0.60;99.90;;;;;;5196478;28;20847;-51
2022/11/20 01:29:24;;;;;;;17.87;11.00;;;0.60;99.90;;;;;;5204336;28;20431;-50
2022/11/20 01:31:55;;;;;;;18.33;11.10;;;0.60;99.90;;;;;;5205938;28;20222;-51
2022/11/20 01:34:26;;;;;;;18.87;11.00;;;0.60;99.90;;;;;;5220120;28;20438;-52
2022/11/20 01:36:56;;;;;;;19.83;11.93;;;0.60;99.90;;;;;;5201297;28;20187;-51
2022/11/20 01:39:27;;;;;;;25.20;11.60;;;0.50;99.90;;;;;;5203477;28;20210;-51
2022/11/20 01:44:49;;;;;;;19.13;11.57;;;0.60;99.90;;;;;;5200967;28;20504;-51
2022/11/20 01:47:28;;;;;;;24.60;11.43;;;0.60;99.90;;;;;;5198644;28;20464;-50
2022/11/20 01:50:06;;;;;;;23.03;11.50;;;0.60;99.90;;;;;;5192310;28;20490;-51
2022/11/20 01:52:42;;;;;;;23.00;12.83;;;0.60;99.90;;;;;;5205889;28;20539;-51
2022/11/20 01:55:18;;;;;;;20.47;11.57;;;0.60;99.90;;;;;;5199215;28;20461;-50
2022/11/20 01:57:50;;;;;;;20.90;12.40;;;0.60;99.90;;;;;;5186606;28;20470;-51
2022/11/20 02:00:21;;;;;;;17.37;11.53;;;0.70;99.90;;;;;;5213492;28;20470;-51
2022/11/20 02:02:58;;;;;;;19.97;11.60;;;0.70;99.90;;;;;;5203184;28;20450;-49
2022/11/20 02:05:38;;;;;;;22.70;13.03;;;0.70;99.90;;;;;;5189902;28;20719;-50
2022/11/20 02:08:09;;;;;;;21.00;11.27;;;0.50;99.90;;;;;;5217505;28;20438;-52
2022/11/20 02:10:40;;;;;;;22.37;11.80;;;0.60;99.90;;;;;;5201048;28;20816;-51
2022/11/20 02:16:01;;;;;;;15.03;11.60;;;0.60;99.90;;;;;;5198094;28;20397;-49
2022/11/20 02:18:32;;;;;;;20.00;12.57;;;0.60;99.90;;;;;;5199053;28;20476;-51
2022/11/20 02:21:27;;;;;;;20.77;11.73;;;0.60;99.90;;;;;;5197396;28;20517;-50
2022/11/20 02:24:13;;;;;;;17.70;11.50;;;0.60;99.90;;;;;;5197547;28;20456;-49
2022/11/20 02:26:55;;;;;;;30.77;14.23;;;0.60;99.90;;;;;;5188771;28;20842;-51
2022/11/20 02:29:32;;;;;;;21.30;11.57;;;0.60;99.90;;;;;;5204246;28;20532;-50
2022/11/20 02:32:03;;;;;;;21.80;12.07;;;0.60;99.90;;;;;;5203780;28;20843;-50
2022/11/20 02:34:34;;;;;;;21.93;12.33;;;0.60;99.90;;;;;;5205423;28;20449;-51
2022/11/20 02:37:04;;;;;;;19.80;12.80;;;0.60;99.90;;;;;;5202140;28;20947;-49
2022/11/20 02:39:35;;;;;;;17.03;12.43;;;0.60;99.90;;;;;;5206894;28;20209;-50
2022/11/20 02:42:06;;;;;;;19.47;13.70;;;0.60;99.90;;;;;;5205845;28;20207;-49
2022/11/20 02:44:37;;;;;;;20.23;13.27;;;0.60;99.90;;;;;;5204014;28;20577;-50
2022/11/20 02:47:08;;;;;;;20.93;13.00;;;0.60;99.90;;;;;;5197830;28;20205;-50
2022/11/20 02:49:39;;;;;;;19.37;12.90;;;0.60;99.90;;;;;;5195316;28;20445;-48
2022/11/20 02:52:09;;;;;;;16.60;12.40;;;0.60;99.90;;;;;;5203882;28;20261;-50
2022/11/20 02:54:40;;;;;;;19.43;13.20;;;0.60;99.90;;;;;;5207275;28;20283;-50
2022/11/20 02:57:11;;;;;;;20.23;12.87;;;0.60;99.90;;;;;;5223198;28;20197;-50
2022/11/20 02:59:42;;;;;;;16.60;11.60;;;0.60;99.90;;;;;;5204760;28;20237;-50
2022/11/20 03:02:13;;;;;;;20.33;13.00;;;0.60;99.90;;;;;;5203040;28;20566;-51
2022/11/20 03:04:43;;;;;;;23.63;13.10;;;0.60;99.90;;;;;;5200308;28;20184;-50
2022/11/20 03:07:14;;;;;;;21.80;13.53;;;0.60;99.90;;;;;;5203579;28;20190;-52
2022/11/20 03:09:45;;;;;;;23.00;13.70;;;0.70;99.90;;;;;;5205890;28;20199;-51
2022/11/20 03:12:15;;;;;;;22.43;12.97;;;0.70;99.90;;;;;;5205039;28;20346;-51
2022/11/20 03:14:46;;;;;;;18.50;12.27;;;0.60;99.90;;;;;;5202585;28;20206;-49
2022/11/20 03:17:17;;;;;;;21.10;13.03;;;0.60;99.90;;;;;;5194940;28;20616;-49
2022/11/20 03:19:48;;;;;;;19.10;12.83;;;0.60;99.90;;;;;;5213234;28;20196;-49
2022/11/20 03:22:18;;;;;;;19.67;12.30;;;0.60;99.90;;;;;;5207615;28;20211;-49
2022/11/20 03:24:49;;;;;;;18.53;13.30;;;0.60;99.90;;;;;;5212080;28;20186;-50
2022/11/20 03:27:19;;;;;;;18.80;11.77;;;0.60;99.90;;;;;;5209717;28;20270;-49
2022/11/20 03:29:50;;;;;;;18.27;12.33;;;0.60;99.90;;;;;;5205388;28;20209;-50
2022/11/20 03:32:21;;;;;;;21.30;12.20;;;0.60;99.90;;;;;;5202073;28;20214;-51
2022/11/20 03:34:52;;;;;;;20.23;13.50;;;0.50;99.90;;;;;;5192766;28;20562;-49
2022/11/20 03:37:22;;;;;;;19.53;13.57;;;0.60;99.90;;;;;;5203927;28;20545;-49
2022/11/20 03:39:53;;;;;;;22.53;12.70;;;0.60;99.90;;;;;;5193321;28;20200;-48
2022/11/20 03:45:15;;;;;;;22.57;13.37;;;0.60;99.90;;;;;;5195614;28;20636;-49
2022/11/20 03:47:46;;;;;;;29.13;15.97;;;0.60;99.90;;;;;;5198385;28;20435;-50
2022/11/20 03:50:17;;;;;;;18.70;12.97;;;0.60;99.90;;;;;;5214129;28;20815;-51
2022/11/20 03:52:48;;;;;;;21.50;13.83;;;0.60;99.90;;;;;;5202889;28;20477;-49
2022/11/20 03:55:18;;;;;;;21.30;13.90;;;0.50;99.90;;;;;;5202259;28;20195;-50
2022/11/20 03:57:49;;;;;;;19.90;13.83;;;0.60;99.90;;;;;;5200829;28;20255;-50
2022/11/20 04:00:20;;;;;;;22.03;13.07;;;0.60;99.90;;;;;;5197847;28;20203;-51
2022/11/20 04:02:51;;;;;;;18.63;13.37;;;0.60;99.90;;;;;;5191622;28;20205;-50
2022/11/20 04:05:22;;;;;;;23.20;13.40;;;0.60;99.90;;;;;;5204089;28;20465;-49
2022/11/20 04:07:52;;;;;;;18.50;13.90;;;0.60;99.90;;;;;;5199493;28;20215;-50
2022/11/20 04:10:24;;;;;;;25.33;14.43;;;0.60;99.90;;;;;;5202594;28;20658;-50
2022/11/20 04:12:54;;;;;;;29.10;14.57;;;0.60;99.90;;;;;;5198093;28;20457;-49
2022/11/20 04:15:25;;;;;;;17.63;12.67;;;0.50;99.90;;;;;;5197680;28;20990;-50
2022/11/20 04:17:56;;;;;;;17.80;12.00;;;0.50;99.90;;;;;;5194368;28;20641;-51
2022/11/20 04:20:26;;;;;;;29.67;13.90;;;0.50;99.90;;;;;;5188535;28;20203;-50
2022/11/20 04:22:57;;;;;;;21.10;13.10;;;0.50;99.90;;;;;;5197521;28;20275;-51
2022/11/20 04:25:28;;;;;;;24.60;14.10;;;0.50;99.90;;;;;;5199565;28;20643;-50
2022/11/20 04:27:58;;;;;;;19.47;12.80;;;0.40;99.90;;;;;;5199270;28;20604;-50
2022/11/20 04:30:30;;;;;;;21.60;13.27;;;0.50;99.90;;;;;;5203053;28;20247;-50
2022/11/20 04:33:01;;;;;;;20.50;13.10;;;0.40;99.90;;;;;;5194403;28;20300;-49
2022/11/20 04:35:34;;;;;;;23.57;13.90;;;0.40;99.90;;;;;;5202223;28;21037;-50
2022/11/20 04:38:05;;;;;;;20.90;12.63;;;0.40;99.90;;;;;;5201288;28;20201;-48
2022/11/20 04:40:36;;;;;;;23.90;14.00;;;0.40;99.90;;;;;;5195684;28;20467;-48
2022/11/20 04:43:06;;;;;;;36.37;13.40;;;0.40;99.90;;;;;;5193587;28;20207;-51
2022/11/20 04:45:37;;;;;;;27.83;12.80;;;0.40;99.90;;;;;;5198805;28;20813;-49
2022/11/20 04:48:07;;;;;;;23.60;12.60;;;0.30;99.90;;;;;;5198223;28;20637;-48
2022/11/20 04:50:40;;;;;;;17.20;12.57;;;0.30;99.90;;;;;;5197463;28;20197;-51
2022/11/20 04:53:11;;;;;;;17.43;12.00;;;0.30;99.90;;;;;;5200335;28;20221;-50
2022/11/20 04:55:42;;;;;;;28.93;13.63;;;0.30;99.90;;;;;;5194089;28;20432;-49
2022/11/20 04:58:13;;;;;;;28.03;13.80;;;0.40;99.90;;;;;;5204105;28;20188;-48
2022/11/20 05:00:44;;;;;;;18.47;13.03;;;0.30;99.90;;;;;;5201470;28;20352;-49
2022/11/20 05:03:15;;;;;;;21.07;12.73;;;0.30;99.90;;;;;;5197653;28;21000;-48
2022/11/20 05:05:45;;;;;;;20.13;13.10;;;0.30;99.90;;;;;;5199238;28;20193;-49
2022/11/20 05:08:16;;;;;;;20.30;12.77;;;0.30;99.90;;;;;;5211306;28;20194;-50
2022/11/20 05:10:47;;;;;;;19.27;12.77;;;0.30;99.90;;;;;;5194858;28;20299;-50
2022/11/20 05:13:17;;;;;;;22.40;12.90;;;0.40;99.90;;;;;;5201639;28;20566;-49
2022/11/20 05:15:48;;;;;;;20.60;12.53;;;0.40;99.90;;;;;;5196308;28;20184;-51
2022/11/20 05:18:19;;;;;;;21.50;12.80;;;0.40;99.90;;;;;;5199100;28;20184;-48
2022/11/20 05:20:56;;;;;;;25.50;13.00;;;0.40;99.90;;;;;;5201868;28;20206;-49
2022/11/20 05:23:27;;;;;;;19.53;13.03;;;0.30;99.90;;;;;;5194345;28;20237;-48
2022/11/20 05:25:59;;;;;;;22.37;13.60;;;0.40;99.90;;;;;;5207400;28;20518;-48
2022/11/20 05:28:31;;;;;;;25.73;14.83;;;0.40;99.90;;;;;;5203660;28;21053;-48
2022/11/20 05:31:17;;;;;;;23.27;12.00;;;0.40;99.90;;;;;;5201372;28;20440;-49
2022/11/20 05:33:47;;;;;;;23.30;12.47;;;0.40;99.90;;;;;;5180559;28;20468;-49
2022/11/20 05:36:18;;;;;;;18.20;12.47;;;0.40;99.90;;;;;;5197396;28;20441;-49
2022/11/20 05:38:49;;;;;;;25.20;13.77;;;0.40;99.90;;;;;;5201014;28;20186;-49
2022/11/20 05:41:20;;;;;;;22.00;13.23;;;0.40;99.90;;;;;;5183058;28;20254;-50
2022/11/20 05:43:51;;;;;;;20.80;12.60;;;0.40;99.90;;;;;;5197536;28;20265;-49
2022/11/20 05:46:22;;;;;;;18.90;12.80;;;0.40;99.90;;;;;;5202561;28;20944;-49
2022/11/20 05:48:53;;;;;;;23.47;13.23;;;0.40;99.90;;;;;;5198020;28;20438;-50
2022/11/20 05:51:24;;;;;;;25.60;12.87;;;0.40;99.90;;;;;;5201407;28;20176;-49
2022/11/20 05:53:58;;;;;;;18.23;12.10;;;0.40;99.90;;;;;;5202420;28;20518;-50
2022/11/20 05:56:29;;;;;;;17.93;11.83;;;0.40;99.90;;;;;;5206223;28;20843;-48
2022/11/20 05:58:59;;;;;;;19.87;12.67;;;0.40;99.90;;;;;;5203846;28;20458;-50
2022/11/20 06:01:30;;;;;;;21.73;13.10;;;0.40;99.90;;;;;;5182065;28;20184;-48
2022/11/20 06:04:01;;;;;;;21.00;11.87;;;0.40;99.90;;;;;;5186542;28;20176;-49
2022/11/20 06:06:32;;;;;;;20.03;12.33;;;0.50;99.90;;;;;;5193557;28;20658;-49
2022/11/20 06:09:02;;;;;;;22.87;11.73;;;0.50;99.90;;;;;;5200454;28;20199;-49
2022/11/20 06:11:33;;;;;;;30.83;12.07;;;0.40;99.90;;;;;;5200438;28;20274;-48
2022/11/20 06:14:04;;;;;;;23.00;12.50;;;0.40;99.90;;;;;;5201999;28;20191;-48
2022/11/20 06:16:35;;;;;;;15.73;11.70;;;0.40;99.90;;;;;;5203459;28;20219;-49
2022/11/20 06:19:05;;;;;;;17.43;12.03;;;0.40;99.90;;;;;;5201168;28;20200;-48
2022/11/20 06:21:36;;;;;;;18.23;12.07;;;0.40;99.90;;;;;;5202925;28;20183;-50
2022/11/20 06:24:08;;;;;;;19.50;12.63;;;0.50;99.90;;;;;;5195791;28;20257;-50
2022/11/20 06:26:39;;;;;;;23.03;13.33;;;0.50;99.90;;;;;;5206439;28;20189;-48
2022/11/20 06:29:10;;;;;;;19.43;12.53;;;0.50;99.90;;;;;;5208217;28;20452;-49
2022/11/20 06:31:42;;;;;;;23.40;12.60;;;0.50;99.90;;;;;;5204064;28;20231;-48
2022/11/20 06:34:13;;;;;;;22.47;13.40;;;0.40;99.90;;;;;;5204724;28;20449;-49
2022/11/20 06:36:43;;;;;;;17.93;13.00;;;0.50;99.90;;;;;;5199773;28;20439;-48
2022/11/20 06:39:14;;;;;;;17.47;12.30;;;0.50;99.90;;;;;;5204925;28;20206;-48
2022/11/20 06:41:45;;;;;;;21.07;12.87;;;0.50;99.90;;;;;;5204790;28;20640;-49
2022/11/20 06:44:16;;;;;;;20.93;12.10;;;0.50;99.90;;;;;;5203899;28;20619;-48
2022/11/20 06:46:47;;;;;;;20.20;11.87;;;0.50;99.90;;;;;;5203043;28;20434;-49
2022/11/20 06:49:17;;;;;;;20.53;12.77;;;0.50;99.90;;;;;;5201914;28;20187;-50
2022/11/20 06:51:48;;;;;;;20.97;12.63;;;0.50;99.90;;;;;;5199733;28;20657;-49
2022/11/20 06:54:19;;;;;;;19.03;11.93;;;0.50;99.90;;;;;;5200634;28;20183;-50
2022/11/20 06:56:49;;;;;;;17.87;11.60;;;0.50;99.90;;;;;;5200630;28;20199;-48
2022/11/20 06:59:20;;;;;;;20.40;13.03;;;0.50;99.90;;;;;;5205576;28;20206;-49
2022/11/20 07:01:50;;;;;;;23.17;12.63;;;0.50;99.90;;;;;;5206429;28;20200;-48
2022/11/20 07:04:21;;;;;;;24.07;13.77;;;0.50;99.90;;;;;;5199501;28;20176;-48
2022/11/20 07:06:52;;;;;;;14.93;11.63;;;0.50;99.90;;;;;;5197412;28;20191;-50
2022/11/20 07:09:23;;;;;;;23.57;12.93;;;0.60;99.90;;;;;;5205412;28;20669;-49
2022/11/20 07:11:53;;;;;;;22.93;12.73;;;0.60;99.90;;;;;;5201406;28;20207;-50
2022/11/20 07:14:24;;;;;;;18.80;12.13;;;0.60;99.90;;;;;;5201646;28;20186;-49
2022/11/20 07:16:55;;;;;;;21.37;13.33;;;0.60;99.90;;;;;;5201755;28;20631;-48
2022/11/20 07:19:26;;;;;;;18.50;11.80;;;0.60;99.90;;;;;;5198203;28;20199;-49
2022/11/20 07:21:56;;;;;;;17.77;11.70;;;0.70;99.90;;;;;;5203936;28;20811;-49
2022/11/20 07:24:27;;;;;;;25.47;12.80;;;0.70;99.90;;;;;;5204466;28;20662;-50
2022/11/20 07:26:57;;;;;;;18.97;12.47;;;0.80;99.90;;;;;;5204808;28;20202;-50
2022/11/20 07:29:28;;;;;;;15.30;11.10;;;0.80;99.90;;;;;;5200248;28;20187;-49
2022/11/20 07:31:59;;;;;;;19.33;12.60;;;0.70;99.90;;;;;;5204311;28;20686;-52
2022/11/20 07:34:30;;;;;;;16.97;11.83;;;0.70;99.90;;;;;;5201769;28;20651;-50
2022/11/20 07:37:00;;;;;;;17.43;12.00;;;0.70;99.90;;;;;;5203572;28;20188;-50
2022/11/20 07:39:31;;;;;;;17.13;11.13;;;0.70;99.90;;;;;;5203380;28;20204;-50
2022/11/20 07:42:02;;;;;;;19.53;13.17;;;0.70;99.90;;;;;;5185525;28;20206;-49
2022/11/20 07:44:33;;;;;;;18.77;12.70;;;0.70;99.90;;;;;;5197068;28;20247;-50
2022/11/20 07:47:04;;;;;;;18.90;11.97;;;0.70;99.90;;;;;;5203160;28;20180;-49
2022/11/20 07:49:35;;;;;;;18.07;11.73;;;0.80;99.90;;;;;;5199673;28;20620;-49
2022/11/20 07:52:05;;;;;;;24.20;12.00;;;0.80;99.90;;;;;;5201498;28;20489;-49
2022/11/20 07:54:36;;;;;;;19.23;12.10;;;0.90;99.90;;;;;;5198261;28;20184;-50
2022/11/20 07:57:07;;;;;;;24.63;14.13;;;0.90;99.90;;;;;;5201648;28;20711;-49
2022/11/20 07:59:38;;;;;;;26.53;13.70;;;1.00;99.90;;;;;;5196159;28;20258;-49
2022/11/20 08:02:12;;;;;;;18.83;12.47;;;1.00;99.90;;;;;;5200705;28;20204;-48
2022/11/20 08:04:43;;;;;;;19.87;13.40;;;1.00;99.90;;;;;;5194279;28;20530;-49
2022/11/20 08:07:13;;;;;;;20.10;13.83;;;1.00;99.90;;;;;;5193216;28;20448;-48
2022/11/20 08:09:44;;;;;;;22.70;11.90;;;1.00;99.90;;;;;;5202070;28;20191;-48
2022/11/20 08:15:08;;;;;;;21.20;12.67;;;1.10;99.90;;;;;;5198030;28;20193;-49
2022/11/20 08:17:39;;;;;;;16.50;11.33;;;1.20;99.90;;;;;;5199471;28;20489;-50
2022/11/20 08:20:10;;;;;;;20.63;12.87;;;1.10;99.90;;;;;;5200745;28;20470;-49
2022/11/20 08:22:41;;;;;;;21.67;12.00;;;1.10;99.90;;;;;;5198993;28;20219;-48
2022/11/20 08:25:12;;;;;;;20.47;12.47;;;1.10;99.90;;;;;;5201469;28;20465;-50
2022/11/20 08:27:42;;;;;;;22.40;12.53;;;1.20;99.90;;;;;;5202597;28;20175;-52
2022/11/20 08:30:13;;;;;;;14.87;11.10;;;1.20;99.90;;;;;;5203140;28;20249;-51
2022/11/20 08:32:44;;;;;;;17.77;11.80;;;1.20;99.90;;;;;;5192382;28;20215;-51
2022/11/20 08:35:15;;;;;;;22.53;12.97;;;1.10;99.90;;;;;;5199269;28;20442;-49
2022/11/20 08:37:47;;;;;;;22.70;13.07;;;1.10;99.90;;;;;;5200933;28;20210;-50
2022/11/20 08:40:18;;;;;;;21.13;12.23;;;1.10;99.90;;;;;;5197947;28;20509;-49
2022/11/20 08:42:50;;;;;;;18.00;12.53;;;1.10;99.90;;;;;;5202137;28;20457;-50
2022/11/20 08:45:21;;;;;;;21.33;12.90;;;1.10;99.90;;;;;;5204146;28;20176;-50
2022/11/20 08:48:00;;;;;;;19.80;12.43;;;1.00;99.90;;;;;;5200227;28;20852;-51
2022/11/20 08:50:32;;;;;;;18.13;12.23;;;1.10;99.90;;;;;;5201146;28;20222;-52
2022/11/20 08:53:06;;;;;;;21.73;11.90;;;1.20;99.90;;;;;;5197186;28;20893;-50
2022/11/20 08:55:36;;;;;;;23.03;12.70;;;1.30;99.90;;;;;;5196964;28;20960;-51
2022/11/20 08:58:07;;;;;;;17.47;12.00;;;1.30;99.90;;;;;;5196158;28;20475;-50
2022/11/20 09:00:38;;;;;;;24.87;13.13;;;1.40;99.90;;;;;;5205995;28;20211;-51
2022/11/20 09:03:09;;;;;;;18.10;12.70;;;1.50;99.90;;;;;;5202494;28;20225;-50
2022/11/20 09:05:39;;;;;;;23.63;14.03;;;1.60;99.90;;;;;;5199715;28;20184;-49
2022/11/20 09:08:10;;;;;;;18.93;12.60;;;1.70;99.90;;;;;;5196988;28;20223;-50
2022/11/20 09:10:41;;;;;;;24.30;13.87;;;1.70;99.90;;;;;;5193166;28;20195;-50
2022/11/20 09:13:12;;;;;;;19.83;13.20;;;1.60;99.90;;;;;;5190997;28;20459;-49
2022/11/20 09:15:42;;;;;;;18.17;11.67;;;1.50;99.90;;;;;;5200032;28;20310;-51
2022/11/20 09:18:13;;;;;;;20.80;12.03;;;1.50;99.90;;;;;;5213160;28;20256;-51
2022/11/20 09:20:44;;;;;;;16.60;12.00;;;1.40;99.90;;;;;;5197426;28;20636;-51
2022/11/20 09:23:15;;;;;;;24.20;12.63;;;1.30;99.90;;;;;;5202021;28;20698;-50
2022/11/20 09:25:45;;;;;;;20.93;12.93;;;1.40;99.90;;;;;;5206164;28;20183;-49
2022/11/20 09:28:18;;;;;;;21.43;12.53;;;1.30;99.90;;;;;;5207865;28;20440;-49
2022/11/20 09:30:48;;;;;;;21.60;12.87;;;1.40;99.90;;;;;;5204230;28;20612;-50
2022/11/20 09:33:19;;;;;;;29.60;13.47;;;1.50;99.90;;;;;;5209025;28;20537;-50
2022/11/20 09:35:50;;;;;;;16.80;12.27;;;1.60;99.90;;;;;;5205747;28;20195;-50
2022/11/20 09:38:20;;;;;;;21.80;11.77;;;1.70;99.90;;;;;;5201849;28;20192;-51
2022/11/20 09:41:04;;;;;;;18.27;12.07;;;1.90;99.90;;;;;;5200223;28;20207;-48
2022/11/20 09:43:54;;;;;;;17.20;11.27;;;1.90;99.90;;;;;;5189616;28;20664;-49
2022/11/20 09:46:37;;;;;;;19.50;11.97;;;1.90;99.90;;;;;;5205315;28;20521;-49
2022/11/20 09:49:22;;;;;;;18.50;11.90;;;2.10;99.90;;;;;;5206118;28;20434;-49
2022/11/20 09:52:32;;;;;;;16.13;11.20;;;2.00;99.90;;;;;;5199328;28;21112;-51
2022/11/20 09:55:08;;;;;;;23.40;12.73;;;2.00;99.90;;;;;;5195301;28;20438;-51
2022/11/20 09:57:46;;;;;;;22.03;11.20;;;2.00;99.90;;;;;;5202562;28;21463;-51
2022/11/20 10:00:21;;;;;;;17.87;12.00;;;2.10;99.90;;;;;;5202963;28;20472;-49
2022/11/20 10:03:10;;;;;;;24.87;12.10;;;2.30;99.90;;;;;;5200178;28;20533;-50
2022/11/20 10:05:49;;;;;;;19.80;12.07;;;2.30;99.90;;;;;;5201419;28;20447;-50
2022/11/20 10:08:23;;;;;;;16.63;11.27;;;2.40;99.90;;;;;;5195011;28;20946;-50
2022/11/20 10:11:04;;;;;;;19.07;11.87;;;2.40;99.90;;;;;;5204341;28;20449;-50
2022/11/20 10:14:13;;;;;;;20.57;12.70;;;2.60;99.90;;;;;;5198437;28;20562;-51
2022/11/20 10:17:03;;;;;;;19.77;12.50;;;2.70;99.90;;;;;;5194272;28;20504;-51
2022/11/20 10:20:03;;;;;;;16.87;10.97;;;2.90;99.90;;;;;;5200941;28;25259;-49
2022/11/20 10:23:08;;;;;;;16.93;11.53;;;2.90;99.90;;;;;;5190064;28;20458;-50
2022/11/20 10:25:59;;;;;;;18.17;11.27;;;2.80;99.90;;;;;;5201360;28;20435;-49
2022/11/20 10:28:48;;;;;;;18.27;11.70;;;2.80;99.90;;;;;;5203866;28;20934;-50
2022/11/20 10:31:37;;;;;;;19.07;10.70;;;2.70;99.90;;;;;;5201721;28;20503;-50
2022/11/20 10:34:20;;;;;;;18.67;11.70;;;2.60;99.90;;;;;;5214754;28;20459;-49
2022/11/20 10:37:08;;;;;;;12.80;10.00;;;2.50;99.90;;;;;;5192242;28;20526;-49
2022/11/20 10:40:02;;;;;;;18.13;11.00;;;2.50;99.90;;;;;;5185473;28;20829;-50
2022/11/20 10:43:14;;;;;;;16.50;11.37;;;2.50;99.90;;;;;;5204332;28;20549;-49
2022/11/20 10:45:52;;;;;;;16.60;11.23;;;2.60;99.90;;;;;;5193768;28;20472;-50
2022/11/20 10:48:25;;;;;;;16.50;10.53;;;2.70;99.90;;;;;;5206409;28;20422;-50
2022/11/20 10:50:56;;;;;;;30.87;12.67;;;2.70;99.90;;;;;;5202374;28;20447;-49
2022/11/20 10:53:51;;;;;;;17.00;10.67;;;2.80;99.90;;;;;;5199028;28;20488;-49
2022/11/20 10:56:53;;;;;;;17.90;10.63;;;2.70;99.90;;;;;;5195246;28;20192;-49
2022/11/20 10:59:59;;;;;;;14.03;10.13;;;2.70;99.90;;;;;;5200011;28;20954;-50
2022/11/20 11:02:40;;;;;;;16.53;10.20;;;2.80;99.90;;;;;;5195415;28;20466;-51
2022/11/20 11:05:15;;;;;;;39.03;16.13;;;3.00;99.90;;;;;;5205206;28;20537;-48
2022/11/20 11:07:50;;;;;;;24.67;14.87;;;3.50;99.90;;;;;;5198829;28;20436;-50
2022/11/20 11:10:37;;;;;;;17.33;11.17;;;4.00;99.90;;;;;;5200947;28;21054;-50
2022/11/20 11:13:26;;;;;;;15.50;10.50;;;4.30;99.90;;;;;;5215627;28;20826;-52
2022/11/20 11:15:58;;;;;;;14.40;11.63;;;4.50;99.90;;;;;;5196248;28;20543;-52
2022/11/20 11:18:34;;;;;;;16.50;11.00;;;4.40;99.90;;;;;;5189944;28;20456;-50
2022/11/20 11:21:09;;;;;;;17.37;10.87;;;4.30;99.90;;;;;;5203110;28;20473;-50
2022/11/20 11:23:44;;;;;;;12.23;8.90;;;4.20;99.90;;;;;;5188426;28;20479;-51
2022/11/20 11:26:23;;;;;;;13.80;10.37;;;4.00;99.90;;;;;;5186903;28;20437;-49
2022/11/20 11:28:59;;;;;;;17.53;9.57;;;3.70;99.90;;;;;;5204925;28;20471;-50
2022/11/20 11:31:35;;;;;;;15.43;9.53;;;3.60;99.90;;;;;;5195477;28;20439;-50
2022/11/20 11:34:16;;;;;;;16.40;10.97;;;3.50;99.90;;;;;;5201980;28;20436;-50
2022/11/20 11:36:56;;;;;;;17.37;10.10;;;3.40;99.90;;;;;;5198653;28;20489;-48
2022/11/20 11:39:30;;;;;;;15.00;9.80;;;3.30;99.90;;;;;;5209883;28;20485;-51
2022/11/20 11:42:01;;;;;;;10.27;9.17;;;3.30;99.90;;;;;;5195171;28;20470;-50
2022/11/20 11:47:31;;;;;;;18.90;11.20;;;3.20;99.90;;;;;;5198691;28;20975;-48
2022/11/20 11:50:08;;;;;;;16.90;12.03;;;3.10;99.90;;;;;;5184370;28;20454;-50
2022/11/20 11:52:51;;;;;;;14.27;10.20;;;3.00;99.90;;;;;;5205828;28;20466;-49
2022/11/20 11:55:32;;;;;;;13.50;10.03;;;2.90;99.90;;;;;;5203639;28;20948;-49
2022/11/20 11:58:19;;;;;;;15.83;9.00;;;2.90;99.90;;;;;;5193047;28;21033;-50
2022/11/20 12:00:58;;;;;;;27.90;12.70;;;2.70;99.90;;;;;;5195903;28;20470;-51
2022/11/20 12:03:38;;;;;;;21.53;12.17;;;2.70;99.90;;;;;;5195006;28;20456;-48
2022/11/20 12:06:15;;;;;;;13.90;9.60;;;2.70;99.90;;;;;;5199734;28;20756;-48
2022/11/20 12:08:59;;;;;;;22.73;12.00;;;2.60;99.90;;;;;;5216384;28;20855;-50
2022/11/20 12:11:37;;;;;;;18.00;11.57;;;2.60;99.90;;;;;;5199132;28;20438;-50
2022/11/20 12:14:39;;;;;;;11.77;8.70;;;2.50;99.90;;;;;;5204219;28;20529;-51
2022/11/20 12:17:13;;;;;;;25.57;10.73;;;2.50;99.90;;;;;;5189087;28;20458;-50
2022/11/20 12:19:44;;;;;;;16.73;9.30;;;2.40;99.90;;;;;;5199889;28;20465;-50
2022/11/20 12:22:14;;;;;;;15.33;8.80;;;2.50;99.90;;;;;;5206557;28;21008;-51
2022/11/20 12:25:12;;;;;;;16.10;10.53;;;2.40;99.90;;;;;;5217957;28;20187;-49
2022/11/20 12:28:21;;;;;;;23.63;12.17;;;2.50;99.90;;;;;;5213341;28;20183;-51
2022/11/20 12:31:24;;;;;;;18.40;11.13;;;2.40;99.90;;;;;;5167339;28;20795;-49
2022/11/20 12:34:08;;;;;;;16.13;10.40;;;2.20;99.90;;;;;;5188487;28;20450;-51
2022/11/20 12:37:01;;;;;;;17.87;10.97;;;2.30;99.90;;;;;;5206776;28;20430;-51
2022/11/20 12:39:42;;;;;;;20.87;10.57;;;2.40;99.90;;;;;;5215081;28;20462;-49
2022/11/20 12:45:46;;;;;;;19.87;9.60;;;2.10;99.90;;;;;;5201611;28;20470;-51
2022/11/20 12:48:43;;;;;;;14.57;9.73;;;2.00;99.90;;;;;;5200959;28;20444;-51
2022/11/20 12:51:32;;;;;;;13.00;9.97;;;1.90;99.90;;;;;;5212615;28;20458;-49
2022/11/20 12:54:06;;;;;;;18.30;9.60;;;1.80;99.90;;;;;;5193116;28;20569;-47
2022/11/20 12:56:57;;;;;;;17.20;10.33;;;1.80;99.90;;;;;;5208088;28;20447;-52
2022/11/20 12:59:46;;;;;;;9.93;8.07;;;1.90;99.90;;;;;;5228191;28;20507;-49
2022/11/20 13:02:37;;;;;;;12.33;8.50;;;2.20;99.90;;;;;;5205034;28;20974;-50
2022/11/20 13:05:16;;;;;;;16.27;9.27;;;2.30;99.90;;;;;;5205846;28;20842;-49
2022/11/20 13:07:53;;;;;;;13.73;8.00;;;2.40;99.90;;;;;;5210685;28;20472;-49
2022/11/20 13:10:52;;;;;;;9.20;7.90;;;2.40;99.90;;;;;;5211746;28;20445;-51
2022/11/20 13:13:33;;;;;;;13.07;8.50;;;2.30;99.90;;;;;;5192405;28;20465;-48
2022/11/20 13:16:30;;;;;;;11.70;7.60;;;2.20;99.90;;;;;;5204167;28;20533;-49
2022/11/20 13:19:08;;;;;;;11.57;7.70;;;2.20;99.90;;;;;;5202737;28;20504;-49
2022/11/20 13:21:48;;;;;;;14.30;7.70;;;2.30;99.90;;;;;;5207293;28;20473;-51
2022/11/20 13:24:19;;;;;;;13.50;7.63;;;2.40;99.90;;;;;;5198865;28;20446;-51
2022/11/20 13:27:08;;;;;;;11.53;7.87;;;2.60;99.90;;;;;;5197607;28;21044;-50
2022/11/20 13:29:43;;;;;;;10.30;7.07;;;2.60;99.90;;;;;;5197305;28;20183;-52
2022/11/20 13:32:15;;;;;;;7.90;6.30;;;2.50;99.90;;;;;;5190565;28;20449;-51
2022/11/20 13:34:55;;;;;;;10.37;7.57;;;2.60;99.90;;;;;;5199847;28;20438;-49